DENVER INTL

KDEN (DEN)
Denver, Colorado
Towered

Vatsim Metar:
KDEN 011753Z 11008G20KT 10SM FEW080 FEW140 SCT180 19/08 A3012 RMK AO2 SLP142 T01940083 10200 20106 50001

DENVER INTL ATC

DENNL - 0.000 - Joe Rahn EDFM

Traffic

Inbound:
Ident
Type
Name
ETA
Phase
WWA1033
B737
bill KORD
Deplaning
FFT431
A320
Chris Walston KFNL
18:19 Z
Descent
SWA701
B738
Joe Anello KCON
18:18 Z
Descent
SWA573
B738
Paul KDFW
18:19 Z
Descent
UAL506
A20N
816206
19:05 Z
Cruse
UAL1754
A320
Sergey Vorobyov UUOO
19:11 Z
Climb
AAL151
A320
Derek KFAR
Boarding
AAL526
A20N
Keith murray KLAX
19:28 Z
Cruse
UAL2240
B738
Shaun Deniston KSAN
19:45 Z
Cruse
AAL313
B752
1533097 CYXC
20:28 Z
Climb
UAL383
B772
Norman Weichardt EDDF
21:16 Z
Cruse

Outbound:
None

SIDs

STARS

Alternate Minimums

Hot Spots